sensor_id;sensor_type;location;lat;lon;timestamp;P1;durP1;ratioP1;P2;durP2;ratioP2
66402;SDS011;53212;52.112;5.144;2024-01-07T00:01:34;10.70;;;9.30;;
66402;SDS011;53212;52.112;5.144;2024-01-07T00:04:00;11.20;;;10.10;;
66402;SDS011;53212;52.112;5.144;2024-01-07T00:06:25;10.00;;;8.90;;
66402;SDS011;53212;52.112;5.144;2024-01-07T00:08:51;10.30;;;9.30;;
66402;SDS011;53212;52.112;5.144;2024-01-07T00:11:16;9.90;;;8.90;;
66402;SDS011;53212;52.112;5.144;2024-01-07T00:13:41;10.90;;;9.10;;
66402;SDS011;53212;52.112;5.144;2024-01-07T00:16:07;10.40;;;9.30;;
66402;SDS011;53212;52.112;5.144;2024-01-07T00:18:32;11.00;;;9.70;;
66402;SDS011;53212;52.112;5.144;2024-01-07T00:20:58;11.50;;;10.30;;
66402;SDS011;53212;52.112;5.144;2024-01-07T00:23:23;10.60;;;9.50;;
66402;SDS011;53212;52.112;5.144;2024-01-07T00:25:49;11.40;;;9.70;;
66402;SDS011;53212;52.112;5.144;2024-01-07T00:28:15;11.40;;;10.20;;
66402;SDS011;53212;52.112;5.144;2024-01-07T00:30:40;11.10;;;9.90;;
66402;SDS011;53212;52.112;5.144;2024-01-07T00:33:05;11.90;;;10.60;;
66402;SDS011;53212;52.112;5.144;2024-01-07T00:35:31;11.40;;;10.00;;
66402;SDS011;53212;52.112;5.144;2024-01-07T00:37:56;11.20;;;9.80;;
66402;SDS011;53212;52.112;5.144;2024-01-07T00:40:25;12.20;;;10.80;;
66402;SDS011;53212;52.112;5.144;2024-01-07T00:42:51;13.00;;;11.00;;
66402;SDS011;53212;52.112;5.144;2024-01-07T00:45:17;12.00;;;10.70;;
66402;SDS011;53212;52.112;5.144;2024-01-07T00:47:43;11.50;;;10.30;;
66402;SDS011;53212;52.112;5.144;2024-01-07T00:50:09;12.80;;;11.00;;
66402;SDS011;53212;52.112;5.144;2024-01-07T00:52:34;12.40;;;10.80;;
66402;SDS011;53212;52.112;5.144;2024-01-07T00:55:03;13.10;;;10.60;;
66402;SDS011;53212;52.112;5.144;2024-01-07T00:57:31;13.00;;;11.40;;
66402;SDS011;53212;52.112;5.144;2024-01-07T00:59:57;12.40;;;11.10;;
66402;SDS011;53212;52.112;5.144;2024-01-07T01:02:22;12.80;;;11.50;;
66402;SDS011;53212;52.112;5.144;2024-01-07T01:04:47;12.00;;;10.70;;
66402;SDS011;53212;52.112;5.144;2024-01-07T01:07:14;13.70;;;11.10;;
66402;SDS011;53212;52.112;5.144;2024-01-07T01:09:39;12.70;;;10.70;;
66402;SDS011;53212;52.112;5.144;2024-01-07T01:12:05;12.70;;;10.90;;
66402;SDS011;53212;52.112;5.144;2024-01-07T01:14:30;13.00;;;11.10;;
66402;SDS011;53212;52.112;5.144;2024-01-07T01:16:56;12.50;;;11.20;;
66402;SDS011;53212;52.112;5.144;2024-01-07T01:19:21;11.80;;;10.30;;
66402;SDS011;53212;52.112;5.144;2024-01-07T01:21:47;12.50;;;11.20;;
66402;SDS011;53212;52.112;5.144;2024-01-07T01:24:12;12.20;;;10.90;;
66402;SDS011;53212;52.112;5.144;2024-01-07T01:26:38;11.80;;;10.60;;
66402;SDS011;53212;52.112;5.144;2024-01-07T01:29:04;12.90;;;11.30;;
66402;SDS011;53212;52.112;5.144;2024-01-07T01:31:30;12.30;;;10.80;;
66402;SDS011;53212;52.112;5.144;2024-01-07T01:33:55;11.70;;;10.50;;
66402;SDS011;53212;52.112;5.144;2024-01-07T01:36:21;11.20;;;10.00;;
66402;SDS011;53212;52.112;5.144;2024-01-07T01:38:46;11.20;;;9.80;;
66402;SDS011;53212;52.112;5.144;2024-01-07T01:41:14;11.50;;;10.30;;
66402;SDS011;53212;52.112;5.144;2024-01-07T01:43:40;10.80;;;9.70;;
66402;SDS011;53212;52.112;5.144;2024-01-07T01:46:06;11.00;;;9.80;;
66402;SDS011;53212;52.112;5.144;2024-01-07T01:48:31;12.80;;;10.30;;
66402;SDS011;53212;52.112;5.144;2024-01-07T01:50:58;10.60;;;9.60;;
66402;SDS011;53212;52.112;5.144;2024-01-07T01:53:25;11.30;;;9.80;;
66402;SDS011;53212;52.112;5.144;2024-01-07T01:55:55;11.20;;;10.00;;
66402;SDS011;53212;52.112;5.144;2024-01-07T01:58:22;10.90;;;9.80;;
66402;SDS011;53212;52.112;5.144;2024-01-07T02:00:48;11.00;;;9.90;;
66402;SDS011;53212;52.112;5.144;2024-01-07T02:03:16;10.90;;;9.70;;
66402;SDS011;53212;52.112;5.144;2024-01-07T02:05:42;11.00;;;9.80;;
66402;SDS011;53212;52.112;5.144;2024-01-07T02:08:09;11.40;;;9.80;;
66402;SDS011;53212;52.112;5.144;2024-01-07T02:10:35;11.30;;;10.10;;
66402;SDS011;53212;52.112;5.144;2024-01-07T02:13:04;11.10;;;9.90;;
66402;SDS011;53212;52.112;5.144;2024-01-07T02:15:30;11.30;;;9.70;;
66402;SDS011;53212;52.112;5.144;2024-01-07T02:17:56;11.60;;;10.40;;
66402;SDS011;53212;52.112;5.144;2024-01-07T02:20:23;12.60;;;10.70;;
66402;SDS011;53212;52.112;5.144;2024-01-07T02:22:49;13.60;;;10.30;;
66402;SDS011;53212;52.112;5.144;2024-01-07T02:25:14;12.70;;;11.00;;
66402;SDS011;53212;52.112;5.144;2024-01-07T02:27:40;13.50;;;11.30;;
66402;SDS011;53212;52.112;5.144;2024-01-07T02:30:06;12.60;;;11.20;;
66402;SDS011;53212;52.112;5.144;2024-01-07T02:32:32;13.60;;;12.20;;
66402;SDS011;53212;52.112;5.144;2024-01-07T02:35:00;13.60;;;10.60;;
66402;SDS011;53212;52.112;5.144;2024-01-07T02:37:26;14.40;;;11.50;;
66402;SDS011;53212;52.112;5.144;2024-01-07T02:39:51;13.80;;;11.90;;
66402;SDS011;53212;52.112;5.144;2024-01-07T02:42:17;14.60;;;12.20;;
66402;SDS011;53212;52.112;5.144;2024-01-07T02:44:42;18.10;;;13.10;;
66402;SDS011;53212;52.112;5.144;2024-01-07T02:47:08;18.50;;;14.10;;
66402;SDS011;53212;52.112;5.144;2024-01-07T02:49:33;18.60;;;14.40;;
66402;SDS011;53212;52.112;5.144;2024-01-07T02:51:59;19.20;;;13.90;;
66402;SDS011;53212;52.112;5.144;2024-01-07T02:54:24;18.50;;;14.60;;
66402;SDS011;53212;52.112;5.144;2024-01-07T02:56:50;18.20;;;14.40;;
66402;SDS011;53212;52.112;5.144;2024-01-07T02:59:15;17.70;;;14.20;;
66402;SDS011;53212;52.112;5.144;2024-01-07T03:01:41;16.80;;;13.80;;
66402;SDS011;53212;52.112;5.144;2024-01-07T03:04:09;18.10;;;14.20;;
66402;SDS011;53212;52.112;5.144;2024-01-07T03:06:35;17.90;;;14.30;;
66402;SDS011;53212;52.112;5.144;2024-01-07T03:09:01;19.60;;;13.70;;
66402;SDS011;53212;52.112;5.144;2024-01-07T03:11:26;17.20;;;14.00;;
66402;SDS011;53212;52.112;5.144;2024-01-07T03:13:51;17.10;;;13.20;;
66402;SDS011;53212;52.112;5.144;2024-01-07T03:16:21;16.90;;;13.60;;
66402;SDS011;53212;52.112;5.144;2024-01-07T03:18:47;16.10;;;13.30;;
66402;SDS011;53212;52.112;5.144;2024-01-07T03:21:23;17.10;;;13.70;;
66402;SDS011;53212;52.112;5.144;2024-01-07T03:23:49;15.20;;;12.80;;
66402;SDS011;53212;52.112;5.144;2024-01-07T03:26:17;16.70;;;13.60;;
66402;SDS011;53212;52.112;5.144;2024-01-07T03:28:43;16.50;;;12.90;;
66402;SDS011;53212;52.112;5.144;2024-01-07T03:31:13;14.70;;;12.60;;
66402;SDS011;53212;52.112;5.144;2024-01-07T03:33:43;15.80;;;12.40;;
66402;SDS011;53212;52.112;5.144;2024-01-07T03:36:13;16.20;;;13.10;;
66402;SDS011;53212;52.112;5.144;2024-01-07T03:38:39;15.20;;;12.80;;
66402;SDS011;53212;52.112;5.144;2024-01-07T03:41:06;14.30;;;11.70;;
66402;SDS011;53212;52.112;5.144;2024-01-07T03:43:32;18.80;;;13.50;;
66402;SDS011;53212;52.112;5.144;2024-01-07T03:45:58;15.30;;;12.60;;
66402;SDS011;53212;52.112;5.144;2024-01-07T03:48:23;14.40;;;12.40;;
66402;SDS011;53212;52.112;5.144;2024-01-07T03:50:49;16.20;;;13.10;;
66402;SDS011;53212;52.112;5.144;2024-01-07T03:53:17;16.00;;;13.00;;
66402;SDS011;53212;52.112;5.144;2024-01-07T03:55:42;14.60;;;11.80;;
66402;SDS011;53212;52.112;5.144;2024-01-07T03:58:08;15.60;;;12.10;;
66402;SDS011;53212;52.112;5.144;2024-01-07T04:00:34;13.90;;;12.10;;
66402;SDS011;53212;52.112;5.144;2024-01-07T04:03:00;15.80;;;13.00;;
66402;SDS011;53212;52.112;5.144;2024-01-07T04:05:26;16.00;;;12.20;;
66402;SDS011;53212;52.112;5.144;2024-01-07T04:07:51;16.40;;;13.80;;
66402;SDS011;53212;52.112;5.144;2024-01-07T04:10:17;17.20;;;13.00;;
66402;SDS011;53212;52.112;5.144;2024-01-07T04:12:43;18.70;;;14.20;;
66402;SDS011;53212;52.112;5.144;2024-01-07T04:15:09;15.70;;;13.60;;
66402;SDS011;53212;52.112;5.144;2024-01-07T04:17:35;16.00;;;13.40;;
66402;SDS011;53212;52.112;5.144;2024-01-07T04:20:01;17.90;;;13.80;;
66402;SDS011;53212;52.112;5.144;2024-01-07T04:22:26;17.40;;;13.90;;
66402;SDS011;53212;52.112;5.144;2024-01-07T04:24:52;17.80;;;14.50;;
66402;SDS011;53212;52.112;5.144;2024-01-07T04:27:17;17.10;;;14.20;;
66402;SDS011;53212;52.112;5.144;2024-01-07T04:29:42;20.50;;;14.60;;
66402;SDS011;53212;52.112;5.144;2024-01-07T04:32:08;18.70;;;13.90;;
66402;SDS011;53212;52.112;5.144;2024-01-07T04:34:33;18.70;;;14.60;;
66402;SDS011;53212;52.112;5.144;2024-01-07T04:36:59;22.10;;;15.20;;
66402;SDS011;53212;52.112;5.144;2024-01-07T04:39:24;21.30;;;15.20;;
66402;SDS011;53212;52.112;5.144;2024-01-07T04:41:50;18.90;;;15.30;;
66402;SDS011;53212;52.112;5.144;2024-01-07T04:44:15;18.10;;;14.70;;
66402;SDS011;53212;52.112;5.144;2024-01-07T04:46:40;19.50;;;15.00;;
66402;SDS011;53212;52.112;5.144;2024-01-07T04:49:06;18.90;;;14.40;;
66402;SDS011;53212;52.112;5.144;2024-01-07T04:51:32;19.10;;;14.80;;
66402;SDS011;53212;52.112;5.144;2024-01-07T04:53:58;17.30;;;14.20;;
66402;SDS011;53212;52.112;5.144;2024-01-07T04:56:24;18.60;;;14.90;;
66402;SDS011;53212;52.112;5.144;2024-01-07T04:58:49;16.20;;;13.70;;
66402;SDS011;53212;52.112;5.144;2024-01-07T05:01:15;15.30;;;12.70;;
66402;SDS011;53212;52.112;5.144;2024-01-07T05:03:41;17.50;;;14.00;;
66402;SDS011;53212;52.112;5.144;2024-01-07T05:06:09;16.80;;;13.60;;
66402;SDS011;53212;52.112;5.144;2024-01-07T05:08:36;16.00;;;13.10;;
66402;SDS011;53212;52.112;5.144;2024-01-07T05:11:03;17.30;;;13.00;;
66402;SDS011;53212;52.112;5.144;2024-01-07T05:13:29;16.80;;;12.90;;
66402;SDS011;53212;52.112;5.144;2024-01-07T05:15:56;14.60;;;12.50;;
66402;SDS011;53212;52.112;5.144;2024-01-07T05:18:22;16.20;;;12.50;;
66402;SDS011;53212;52.112;5.144;2024-01-07T05:20:49;14.90;;;12.00;;
66402;SDS011;53212;52.112;5.144;2024-01-07T05:23:15;13.80;;;12.40;;
66402;SDS011;53212;52.112;5.144;2024-01-07T05:25:44;15.00;;;12.20;;
66402;SDS011;53212;52.112;5.144;2024-01-07T05:28:11;15.80;;;12.10;;
66402;SDS011;53212;52.112;5.144;2024-01-07T05:30:41;17.10;;;12.10;;
66402;SDS011;53212;52.112;5.144;2024-01-07T05:33:09;15.80;;;12.30;;
66402;SDS011;53212;52.112;5.144;2024-01-07T05:35:35;16.50;;;12.90;;
66402;SDS011;53212;52.112;5.144;2024-01-07T05:38:00;14.80;;;11.60;;
66402;SDS011;53212;52.112;5.144;2024-01-07T05:40:26;15.90;;;11.30;;
66402;SDS011;53212;52.112;5.144;2024-01-07T05:42:51;14.80;;;11.90;;
66402;SDS011;53212;52.112;5.144;2024-01-07T05:45:16;13.70;;;11.60;;
66402;SDS011;53212;52.112;5.144;2024-01-07T05:47:42;14.00;;;11.70;;
66402;SDS011;53212;52.112;5.144;2024-01-07T05:50:07;14.30;;;12.10;;
66402;SDS011;53212;52.112;5.144;2024-01-07T05:52:33;12.20;;;10.90;;
66402;SDS011;53212;52.112;5.144;2024-01-07T05:54:59;15.50;;;12.60;;
66402;SDS011;53212;52.112;5.144;2024-01-07T05:57:25;12.90;;;11.10;;
66402;SDS011;53212;52.112;5.144;2024-01-07T05:59:50;13.20;;;11.20;;
66402;SDS011;53212;52.112;5.144;2024-01-07T06:02:17;14.40;;;11.50;;
66402;SDS011;53212;52.112;5.144;2024-01-07T06:04:43;16.80;;;13.50;;
66402;SDS011;53212;52.112;5.144;2024-01-07T06:07:08;14.90;;;12.90;;
66402;SDS011;53212;52.112;5.144;2024-01-07T06:09:34;16.60;;;12.60;;
66402;SDS011;53212;52.112;5.144;2024-01-07T06:11:59;17.00;;;13.40;;
66402;SDS011;53212;52.112;5.144;2024-01-07T06:14:25;17.10;;;13.70;;
66402;SDS011;53212;52.112;5.144;2024-01-07T06:16:51;14.70;;;13.10;;
66402;SDS011;53212;52.112;5.144;2024-01-07T06:19:17;14.90;;;12.90;;
66402;SDS011;53212;52.112;5.144;2024-01-07T06:21:43;19.30;;;14.20;;
66402;SDS011;53212;52.112;5.144;2024-01-07T06:24:08;15.50;;;12.90;;
66402;SDS011;53212;52.112;5.144;2024-01-07T06:26:34;15.70;;;12.60;;
66402;SDS011;53212;52.112;5.144;2024-01-07T06:29:00;18.70;;;13.50;;
66402;SDS011;53212;52.112;5.144;2024-01-07T06:31:26;16.30;;;12.40;;
66402;SDS011;53212;52.112;5.144;2024-01-07T06:33:52;17.60;;;12.70;;
66402;SDS011;53212;52.112;5.144;2024-01-07T06:36:18;15.00;;;11.90;;
66402;SDS011;53212;52.112;5.144;2024-01-07T06:38:43;13.20;;;11.80;;
66402;SDS011;53212;52.112;5.144;2024-01-07T06:41:12;15.40;;;11.80;;
66402;SDS011;53212;52.112;5.144;2024-01-07T06:43:38;15.30;;;11.60;;
66402;SDS011;53212;52.112;5.144;2024-01-07T06:46:04;14.00;;;12.00;;
66402;SDS011;53212;52.112;5.144;2024-01-07T06:48:30;13.40;;;11.90;;
66402;SDS011;53212;52.112;5.144;2024-01-07T06:50:55;14.20;;;12.40;;
66402;SDS011;53212;52.112;5.144;2024-01-07T06:53:21;15.20;;;11.90;;
66402;SDS011;53212;52.112;5.144;2024-01-07T06:55:46;14.30;;;12.10;;
66402;SDS011;53212;52.112;5.144;2024-01-07T06:58:12;16.00;;;12.00;;
66402;SDS011;53212;52.112;5.144;2024-01-07T07:00:38;14.30;;;12.80;;
66402;SDS011;53212;52.112;5.144;2024-01-07T07:03:04;15.20;;;12.20;;
66402;SDS011;53212;52.112;5.144;2024-01-07T07:05:30;14.10;;;12.00;;
66402;SDS011;53212;52.112;5.144;2024-01-07T07:07:56;17.10;;;13.70;;
66402;SDS011;53212;52.112;5.144;2024-01-07T07:10:22;15.70;;;13.50;;
66402;SDS011;53212;52.112;5.144;2024-01-07T07:12:47;19.70;;;14.70;;
66402;SDS011;53212;52.112;5.144;2024-01-07T07:15:13;16.30;;;14.20;;
66402;SDS011;53212;52.112;5.144;2024-01-07T07:17:38;15.30;;;12.50;;
66402;SDS011;53212;52.112;5.144;2024-01-07T07:20:05;13.30;;;11.80;;
66402;SDS011;53212;52.112;5.144;2024-01-07T07:22:31;14.50;;;11.50;;
66402;SDS011;53212;52.112;5.144;2024-01-07T07:24:57;15.70;;;11.90;;
66402;SDS011;53212;52.112;5.144;2024-01-07T07:27:22;13.70;;;11.00;;
66402;SDS011;53212;52.112;5.144;2024-01-07T07:29:47;13.00;;;10.60;;
66402;SDS011;53212;52.112;5.144;2024-01-07T07:32:13;14.30;;;10.60;;
66402;SDS011;53212;52.112;5.144;2024-01-07T07:34:38;14.60;;;11.00;;
66402;SDS011;53212;52.112;5.144;2024-01-07T07:37:04;14.70;;;10.60;;
66402;SDS011;53212;52.112;5.144;2024-01-07T07:39:29;11.70;;;10.10;;
66402;SDS011;53212;52.112;5.144;2024-01-07T07:41:55;12.40;;;10.60;;
66402;SDS011;53212;52.112;5.144;2024-01-07T07:44:20;13.60;;;10.60;;
66402;SDS011;53212;52.112;5.144;2024-01-07T07:46:45;12.30;;;10.20;;
66402;SDS011;53212;52.112;5.144;2024-01-07T07:49:11;13.50;;;10.50;;
66402;SDS011;53212;52.112;5.144;2024-01-07T07:51:36;12.40;;;9.80;;
66402;SDS011;53212;52.112;5.144;2024-01-07T07:54:02;11.40;;;9.90;;
66402;SDS011;53212;52.112;5.144;2024-01-07T07:56:28;12.80;;;10.20;;
66402;SDS011;53212;52.112;5.144;2024-01-07T07:58:54;10.90;;;9.60;;
66402;SDS011;53212;52.112;5.144;2024-01-07T08:01:19;10.20;;;9.00;;
66402;SDS011;53212;52.112;5.144;2024-01-07T08:03:45;12.00;;;9.30;;
66402;SDS011;53212;52.112;5.144;2024-01-07T08:06:11;11.40;;;9.50;;
66402;SDS011;53212;52.112;5.144;2024-01-07T08:08:36;11.70;;;10.10;;
66402;SDS011;53212;52.112;5.144;2024-01-07T08:11:02;11.70;;;9.90;;
66402;SDS011;53212;52.112;5.144;2024-01-07T08:13:28;14.70;;;11.70;;
66402;SDS011;53212;52.112;5.144;2024-01-07T08:15:53;12.30;;;10.30;;
66402;SDS011;53212;52.112;5.144;2024-01-07T08:18:18;11.20;;;9.40;;
66402;SDS011;53212;52.112;5.144;2024-01-07T08:20:44;11.60;;;9.50;;
66402;SDS011;53212;52.112;5.144;2024-01-07T08:23:09;11.70;;;9.60;;
66402;SDS011;53212;52.112;5.144;2024-01-07T08:25:35;12.80;;;10.00;;
66402;SDS011;53212;52.112;5.144;2024-01-07T08:28:00;13.00;;;10.40;;
66402;SDS011;53212;52.112;5.144;2024-01-07T08:30:26;12.30;;;10.80;;
66402;SDS011;53212;52.112;5.144;2024-01-07T08:32:51;12.80;;;10.10;;
66402;SDS011;53212;52.112;5.144;2024-01-07T08:35:17;12.50;;;10.10;;
66402;SDS011;53212;52.112;5.144;2024-01-07T08:37:42;11.40;;;9.50;;
66402;SDS011;53212;52.112;5.144;2024-01-07T08:40:08;12.10;;;9.70;;
66402;SDS011;53212;52.112;5.144;2024-01-07T08:42:35;10.90;;;9.80;;
66402;SDS011;53212;52.112;5.144;2024-01-07T08:45:01;11.50;;;9.30;;
66402;SDS011;53212;52.112;5.144;2024-01-07T08:47:29;10.60;;;9.30;;
66402;SDS011;53212;52.112;5.144;2024-01-07T08:49:56;11.70;;;9.10;;
66402;SDS011;53212;52.112;5.144;2024-01-07T08:52:22;12.10;;;9.70;;
66402;SDS011;53212;52.112;5.144;2024-01-07T08:54:48;10.80;;;9.70;;
66402;SDS011;53212;52.112;5.144;2024-01-07T08:57:14;10.60;;;8.90;;
66402;SDS011;53212;52.112;5.144;2024-01-07T08:59:39;10.70;;;9.40;;
66402;SDS011;53212;52.112;5.144;2024-01-07T09:02:05;9.50;;;8.20;;
66402;SDS011;53212;52.112;5.144;2024-01-07T09:04:30;9.50;;;8.00;;
66402;SDS011;53212;52.112;5.144;2024-01-07T09:06:57;11.40;;;9.00;;
66402;SDS011;53212;52.112;5.144;2024-01-07T09:09:22;10.10;;;9.00;;
66402;SDS011;53212;52.112;5.144;2024-01-07T09:11:49;10.50;;;8.70;;
66402;SDS011;53212;52.112;5.144;2024-01-07T09:14:14;9.30;;;8.00;;
66402;SDS011;53212;52.112;5.144;2024-01-07T09:16:40;9.80;;;8.10;;
66402;SDS011;53212;52.112;5.144;2024-01-07T09:19:05;9.90;;;8.50;;
66402;SDS011;53212;52.112;5.144;2024-01-07T09:21:31;10.10;;;8.30;;
66402;SDS011;53212;52.112;5.144;2024-01-07T09:23:56;10.00;;;8.30;;
66402;SDS011;53212;52.112;5.144;2024-01-07T09:26:21;12.00;;;9.70;;
66402;SDS011;53212;52.112;5.144;2024-01-07T09:28:47;10.50;;;9.30;;
66402;SDS011;53212;52.112;5.144;2024-01-07T09:31:12;12.40;;;8.90;;
66402;SDS011;53212;52.112;5.144;2024-01-07T09:33:38;10.20;;;8.60;;
66402;SDS011;53212;52.112;5.144;2024-01-07T09:36:04;10.90;;;9.00;;
66402;SDS011;53212;52.112;5.144;2024-01-07T09:38:29;10.30;;;8.20;;
66402;SDS011;53212;52.112;5.144;2024-01-07T09:40:55;10.70;;;9.20;;
66402;SDS011;53212;52.112;5.144;2024-01-07T09:43:20;10.40;;;8.60;;
66402;SDS011;53212;52.112;5.144;2024-01-07T09:45:47;11.30;;;8.60;;
66402;SDS011;53212;52.112;5.144;2024-01-07T09:48:15;9.60;;;8.20;;
66402;SDS011;53212;52.112;5.144;2024-01-07T09:50:42;9.80;;;8.00;;
66402;SDS011;53212;52.112;5.144;2024-01-07T09:53:07;9.00;;;8.10;;
66402;SDS011;53212;52.112;5.144;2024-01-07T09:55:54;8.60;;;7.60;;
66402;SDS011;53212;52.112;5.144;2024-01-07T09:58:28;8.60;;;7.40;;
66402;SDS011;53212;52.112;5.144;2024-01-07T10:00:54;10.40;;;7.10;;
66402;SDS011;53212;52.112;5.144;2024-01-07T10:03:19;8.50;;;7.60;;
66402;SDS011;53212;52.112;5.144;2024-01-07T10:05:45;8.70;;;6.50;;
66402;SDS011;53212;52.112;5.144;2024-01-07T10:08:10;11.40;;;7.50;;
66402;SDS011;53212;52.112;5.144;2024-01-07T10:10:36;7.70;;;6.30;;
66402;SDS011;53212;52.112;5.144;2024-01-07T10:13:02;8.40;;;6.60;;
66402;SDS011;53212;52.112;5.144;2024-01-07T10:15:27;8.20;;;6.70;;
66402;SDS011;53212;52.112;5.144;2024-01-07T10:18:02;6.90;;;6.10;;
66402;SDS011;53212;52.112;5.144;2024-01-07T10:20:32;7.40;;;6.10;;
66402;SDS011;53212;52.112;5.144;2024-01-07T10:23:02;7.30;;;5.70;;
66402;SDS011;53212;52.112;5.144;2024-01-07T10:25:30;7.40;;;5.50;;
66402;SDS011;53212;52.112;5.144;2024-01-07T10:28:01;6.40;;;5.60;;
66402;SDS011;53212;52.112;5.144;2024-01-07T10:30:29;5.40;;;4.90;;
66402;SDS011;53212;52.112;5.144;2024-01-07T10:32:58;7.20;;;4.40;;
66402;SDS011;53212;52.112;5.144;2024-01-07T10:35:29;5.40;;;4.70;;
66402;SDS011;53212;52.112;5.144;2024-01-07T10:37:59;6.90;;;4.80;;
66402;SDS011;53212;52.112;5.144;2024-01-07T10:40:26;7.00;;;4.30;;
66402;SDS011;53212;52.112;5.144;2024-01-07T10:42:52;5.60;;;4.20;;
66402;SDS011;53212;52.112;5.144;2024-01-07T10:45:20;5.50;;;4.20;;
66402;SDS011;53212;52.112;5.144;2024-01-07T10:47:49;5.90;;;4.00;;
66402;SDS011;53212;52.112;5.144;2024-01-07T10:50:18;5.50;;;4.70;;
66402;SDS011;53212;52.112;5.144;2024-01-07T10:52:49;5.80;;;4.50;;
66402;SDS011;53212;52.112;5.144;2024-01-07T10:55:18;4.20;;;3.80;;
66402;SDS011;53212;52.112;5.144;2024-01-07T10:57:47;5.70;;;4.40;;
66402;SDS011;53212;52.112;5.144;2024-01-07T11:00:17;5.60;;;4.40;;
66402;SDS011;53212;52.112;5.144;2024-01-07T11:03:13;6.40;;;3.60;;
66402;SDS011;53212;52.112;5.144;2024-01-07T11:05:50;4.80;;;4.30;;
66402;SDS011;53212;52.112;5.144;2024-01-07T11:08:52;6.30;;;4.50;;
66402;SDS011;53212;52.112;5.144;2024-01-07T11:11:27;4.50;;;3.60;;
66402;SDS011;53212;52.112;5.144;2024-01-07T11:14:33;4.20;;;3.70;;
66402;SDS011;53212;52.112;5.144;2024-01-07T11:17:05;4.30;;;3.80;;
66402;SDS011;53212;52.112;5.144;2024-01-07T11:19:32;4.80;;;3.60;;
66402;SDS011;53212;52.112;5.144;2024-01-07T11:22:26;4.60;;;3.70;;
66402;SDS011;53212;52.112;5.144;2024-01-07T11:24:59;4.30;;;3.30;;
66402;SDS011;53212;52.112;5.144;2024-01-07T11:27:28;5.60;;;3.70;;
66402;SDS011;53212;52.112;5.144;2024-01-07T11:30:03;4.60;;;3.80;;
66402;SDS011;53212;52.112;5.144;2024-01-07T11:32:33;5.70;;;3.40;;
66402;SDS011;53212;52.112;5.144;2024-01-07T11:35:00;4.50;;;3.80;;
66402;SDS011;53212;52.112;5.144;2024-01-07T11:37:27;4.30;;;3.80;;
66402;SDS011;53212;52.112;5.144;2024-01-07T11:39:56;4.20;;;3.80;;
66402;SDS011;53212;52.112;5.144;2024-01-07T11:42:23;5.50;;;3.40;;
66402;SDS011;53212;52.112;5.144;2024-01-07T11:47:17;5.20;;;3.70;;
66402;SDS011;53212;52.112;5.144;2024-01-07T11:49:44;3.70;;;3.40;;
66402;SDS011;53212;52.112;5.144;2024-01-07T11:52:10;3.40;;;3.10;;
66402;SDS011;53212;52.112;5.144;2024-01-07T11:54:39;4.40;;;3.30;;
66402;SDS011;53212;52.112;5.144;2024-01-07T11:57:06;2.90;;;2.70;;
66402;SDS011;53212;52.112;5.144;2024-01-07T11:59:36;3.20;;;2.90;;
66402;SDS011;53212;52.112;5.144;2024-01-07T12:02:02;3.10;;;2.70;;
66402;SDS011;53212;52.112;5.144;2024-01-07T12:04:32;4.00;;;3.00;;
66402;SDS011;53212;52.112;5.144;2024-01-07T12:06:58;3.10;;;2.80;;
66402;SDS011;53212;52.112;5.144;2024-01-07T12:09:27;3.00;;;2.70;;
66402;SDS011;53212;52.112;5.144;2024-01-07T12:11:53;5.80;;;2.80;;
66402;SDS011;53212;52.112;5.144;2024-01-07T12:14:19;2.60;;;2.40;;
66402;SDS011;53212;52.112;5.144;2024-01-07T12:16:45;2.50;;;2.30;;
66402;SDS011;53212;52.112;5.144;2024-01-07T12:19:11;3.00;;;2.30;;
66402;SDS011;53212;52.112;5.144;2024-01-07T12:21:37;2.40;;;2.20;;
66402;SDS011;53212;52.112;5.144;2024-01-07T12:24:04;2.80;;;2.60;;
66402;SDS011;53212;52.112;5.144;2024-01-07T12:26:30;2.70;;;2.40;;
66402;SDS011;53212;52.112;5.144;2024-01-07T12:28:58;2.80;;;2.20;;
66402;SDS011;53212;52.112;5.144;2024-01-07T12:31:34;2.70;;;2.10;;
66402;SDS011;53212;52.112;5.144;2024-01-07T12:34:01;3.40;;;2.20;;
66402;SDS011;53212;52.112;5.144;2024-01-07T12:36:29;2.90;;;2.00;;
66402;SDS011;53212;52.112;5.144;2024-01-07T12:38:55;3.10;;;2.00;;
66402;SDS011;53212;52.112;5.144;2024-01-07T12:41:21;2.30;;;1.90;;
66402;SDS011;53212;52.112;5.144;2024-01-07T12:43:48;2.40;;;2.20;;
66402;SDS011;53212;52.112;5.144;2024-01-07T12:46:14;2.30;;;2.10;;
66402;SDS011;53212;52.112;5.144;2024-01-07T12:48:40;2.10;;;1.90;;
66402;SDS011;53212;52.112;5.144;2024-01-07T12:51:05;2.10;;;1.90;;
66402;SDS011;53212;52.112;5.144;2024-01-07T12:53:31;2.50;;;2.00;;
66402;SDS011;53212;52.112;5.144;2024-01-07T12:55:56;2.70;;;2.10;;
66402;SDS011;53212;52.112;5.144;2024-01-07T12:58:22;2.50;;;1.80;;
66402;SDS011;53212;52.112;5.144;2024-01-07T13:00:47;3.90;;;2.40;;
66402;SDS011;53212;52.112;5.144;2024-01-07T13:03:13;4.30;;;2.10;;
66402;SDS011;53212;52.112;5.144;2024-01-07T13:05:46;2.50;;;2.00;;
66402;SDS011;53212;52.112;5.144;2024-01-07T13:08:15;2.70;;;2.00;;
66402;SDS011;53212;52.112;5.144;2024-01-07T13:10:43;2.90;;;2.00;;
66402;SDS011;53212;52.112;5.144;2024-01-07T13:13:09;2.80;;;2.10;;
66402;SDS011;53212;52.112;5.144;2024-01-07T13:15:36;2.60;;;2.00;;
66402;SDS011;53212;52.112;5.144;2024-01-07T13:18:02;2.50;;;1.70;;
66402;SDS011;53212;52.112;5.144;2024-01-07T13:20:27;2.10;;;1.90;;
66402;SDS011;53212;52.112;5.144;2024-01-07T13:22:53;1.90;;;1.80;;
66402;SDS011;53212;52.112;5.144;2024-01-07T13:25:18;1.80;;;1.70;;
66402;SDS011;53212;52.112;5.144;2024-01-07T13:27:44;2.10;;;1.90;;
66402;SDS011;53212;52.112;5.144;2024-01-07T13:30:09;3.10;;;1.90;;
66402;SDS011;53212;52.112;5.144;2024-01-07T13:32:36;2.40;;;2.20;;
66402;SDS011;53212;52.112;5.144;2024-01-07T13:35:02;3.40;;;1.90;;
66402;SDS011;53212;52.112;5.144;2024-01-07T13:37:29;2.00;;;1.80;;
66402;SDS011;53212;52.112;5.144;2024-01-07T13:39:56;26.60;;;18.60;;
66402;SDS011;53212;52.112;5.144;2024-01-07T13:42:21;20.30;;;12.60;;
66402;SDS011;53212;52.112;5.144;2024-01-07T13:44:46;3.40;;;3.10;;
66402;SDS011;53212;52.112;5.144;2024-01-07T13:47:12;7.70;;;5.50;;
66402;SDS011;53212;52.112;5.144;2024-01-07T13:49:42;4.50;;;2.90;;
66402;SDS011;53212;52.112;5.144;2024-01-07T13:52:07;2.10;;;1.80;;
66402;SDS011;53212;52.112;5.144;2024-01-07T13:54:33;2.60;;;2.00;;
66402;SDS011;53212;52.112;5.144;2024-01-07T13:56:58;4.20;;;3.80;;
66402;SDS011;53212;52.112;5.144;2024-01-07T13:59:25;2.70;;;1.70;;
66402;SDS011;53212;52.112;5.144;2024-01-07T14:01:51;2.20;;;2.00;;
66402;SDS011;53212;52.112;5.144;2024-01-07T14:04:17;4.70;;;2.20;;
66402;SDS011;53212;52.112;5.144;2024-01-07T14:06:43;1.80;;;1.60;;
66402;SDS011;53212;52.112;5.144;2024-01-07T14:09:09;2.50;;;2.00;;
66402;SDS011;53212;52.112;5.144;2024-01-07T14:11:35;4.00;;;2.70;;
66402;SDS011;53212;52.112;5.144;2024-01-07T14:14:00;2.80;;;1.90;;
66402;SDS011;53212;52.112;5.144;2024-01-07T14:16:27;13.20;;;6.40;;
66402;SDS011;53212;52.112;5.144;2024-01-07T14:18:53;40.90;;;14.40;;
66402;SDS011;53212;52.112;5.144;2024-01-07T14:21:19;35.20;;;13.70;;
66402;SDS011;53212;52.112;5.144;2024-01-07T14:23:45;4.10;;;2.80;;
66402;SDS011;53212;52.112;5.144;2024-01-07T14:26:10;2.20;;;2.10;;
66402;SDS011;53212;52.112;5.144;2024-01-07T14:28:36;2.30;;;2.10;;
66402;SDS011;53212;52.112;5.144;2024-01-07T14:31:01;3.10;;;1.90;;